Metar Cercanos

 

LEPA - Palma De Mallorc, Spain
Distance from station: ONO 38km
Actualización: Tue, 05-Jul-2022 8:30am CEST
Few Clouds
Few Clouds
 Viento del ENE
Viento: ENE 22 km/h
Temperatura: 26°C
Rocío: 23°C
Humedad: 84%
Barómetro: 1017 hPa
Clouds: Few Clouds
Visibility: 9 km
Cloud details: Few Clouds 305 m
2022/07/05 06:30 LEPA 050630Z 06012KT 9000 FEW010 26/23 Q1017 NOSIG
LEMH - Mahon/Menorca Is, Spain
Distance from station: ENE 105km
Actualización: Tue, 05-Jul-2022 8:30am CEST
Despejado
Despejado
 Viento del N
Viento: N 11 km/h
Temperatura: 25°C
Rocío: 21°C
Humedad: 79%
Barómetro: 1019 hPa
Resumen: Despejado
Visibility: greater than 10 km
2022/07/05 06:30 LEMH 050630Z 01006KT 340V050 CAVOK 25/21 Q1019
 
LEIB - Ibiza/Es Codola, Spain
Distance from station: OSO 165km
Actualización: Tue, 05-Jul-2022 8:30am CEST
Despejado
Despejado
 Viento del E
Viento: E 7 km/h
Temperatura: 26°C
Rocío: 22°C
Humedad: 79%
Barómetro: 1016 hPa
Resumen: Despejado
Visibility: greater than 10 km
2022/07/05 06:30 LEIB 050630Z 08004KT CAVOK 26/22 Q1016 NOSIG
LEBL - Barcelona Airpor, Spain
Distance from station: NNO 225km
Actualización: Tue, 05-Jul-2022 8:30am CEST
Few Clouds
Few Clouds
 Viento del NNO
Viento: NNO 13 km/h, Racha: 35 km/h
Temperatura: 24°C
Rocío: 17°C
Humedad: 65%
Barómetro: 1018 hPa
Clouds: Few Clouds
Visibility: 10 km
Cloud details: Few Clouds 762 m
2022/07/05 06:30 LEBL 050630Z 33007G19KT 210V020 9999 FEW025 24/17 Q1018 NOSIG
 
LEVC - Valencia (civ/Mi, Spain
Distance from station: NO 188km
Actualización: Tue, 05-Jul-2022 8:30am CEST
Few Clouds
Few Clouds
 Viento del varies
Viento: varies 4 km/h
Temperatura: 24°C
Rocío: 21°C
Humedad: 83%
Barómetro: 1018 hPa
Clouds: Few Clouds
Visibility: 10 km
Cloud details: Few Clouds 610 m
2022/07/05 06:30 LEVC 050630Z VRB02KT 9999 FEW020 24/21 Q1018 NOSIG
LEGE - Gerona/Costa Bra, Spain
Distance from station: N 276km
Actualización: Tue, 05-Jul-2022 8:30am CEST
Despejado
Despejado
 Viento del S
Viento: S 4 km/h
Temperatura: 22°C
Rocío: 14°C
Humedad: 61%
Barómetro: 1019 hPa
Resumen: Despejado
Visibility: greater than 10 km
2022/07/05 06:30 LEGE 050630Z 19002KT CAVOK 22/14 Q1019
 
LEAL - Alicante/El Alte, Spain
Distance from station: OSO 344km
Actualización: Tue, 05-Jul-2022 8:30am CEST
Muy nuboso
Muy nuboso
 Viento del ENE
Viento: ENE 11 km/h
Temperatura: 25°C
Rocío: 23°C
Humedad: 89%
Barómetro: 1016 hPa
Clouds: Muy nuboso
Visibility: 10 km
Cloud details: Muy nuboso 244 m
2022/07/05 06:30 LEAL 050630Z 06006KT 030V100 9999 BKN008 25/23 Q1016 NOSIG
LEAM - Almeria Airport, Spain
Distance from station: SSO 56km
Actualización: Tue, 05-Jul-2022 8:30am CEST
Despejado
Despejado
 Viento del NO
Viento: NO 7 km/h
Temperatura: 24°C
Rocío: 20°C
Humedad: 78%
Barómetro: 1015 hPa
Resumen: Despejado
Visibility: greater than 10 km
2022/07/05 06:30 LEAM 050630Z 32004KT CAVOK 24/20 Q1015
 
LEZG - Zaragoza (mil/Ci, Spain
Distance from station: NO 431km
Actualización: Tue, 05-Jul-2022 8:30am CEST
Despejado
Despejado
 Viento del ONO
Viento: ONO 22 km/h
Temperatura: 20°C
Rocío: 13°C
Humedad: 64%
Barómetro: 1021 hPa
Resumen: Despejado
Visibility: greater than 10 km
2022/07/05 06:30 LEZG 050630Z 29012KT 260V320 CAVOK 20/13 Q1021
LEMD - Madrid/Barajas, Spain
Distance from station: ONO 234km
Actualización: Tue, 05-Jul-2022 8:30am CEST
Despejado
Despejado
 Viento del varies
Viento: varies 2 km/h
Temperatura: 22°C
Rocío: 9°C
Humedad: 44%
Barómetro: 1019 hPa
Resumen: Despejado
Visibility: greater than 10 km
2022/07/05 06:30 LEMD 050630Z VRB01KT CAVOK 22/09 Q1019 NOSIG
 
LEGR - Granada Airport, Spain
Distance from station: OSO 62km
Actualización: Tue, 05-Jul-2022 8:30am CEST
Few Clouds
Few Clouds
 Viento del calm
Viento: Calma
Temperatura: 23°C
Rocío: 9°C
Humedad: 41%
Barómetro: 1019 hPa
Clouds: Few Clouds
Visibility: 10 km
Cloud details: Few Clouds 2743 m
2022/07/05 06:30 LEGR 050630Z 00000KT 9999 FEW090 23/09 Q1019
LEMG - Malaga (civ/Mil), Spain
Distance from station: OSO 227km
Actualización: Tue, 05-Jul-2022 8:30am CEST
Despejado
Despejado
 Viento del varies
Viento: varies 2 km/h
Temperatura: 23°C
Rocío: 16°C
Humedad: 65%
Barómetro: 1016 hPa
Resumen: Despejado
Visibility: greater than 10 km
2022/07/05 06:30 LEMG 050630Z VRB01KT CAVOK 23/16 Q1016 NOSIG
 
LEZL - Sevilla (civ/Mil, Spain
Distance from station: S 318km
Actualización: Tue, 05-Jul-2022 8:30am CEST
Parcialmente nuboso
Parcialmente nuboso
 Viento del N
Viento: N 6 km/h
Temperatura: 20°C
Rocío: 17°C
Humedad: 83%
Barómetro: 1017 hPa
Clouds: Parcialmente nuboso
Visibility: 10 km
Cloud details: Parcialmente nuboso 335 m
2022/07/05 06:30 LEZL 050630Z 36003KT 300V050 9999 SCT011 20/17 Q1017 NOSIG
LEVT - Vitoria, Spain
Distance from station: NO 226km
Actualización: Tue, 05-Jul-2022 8:30am CEST
Cubierto
Cubierto
 Viento del ENE
Viento: ENE 7 km/h
Temperatura: 16°C
Rocío: 13°C
Humedad: 83%
Barómetro: 1023 hPa
Clouds: Cubierto
Visibility: 10 km
Cloud details: Cubierto 488 m
2022/07/05 06:30 LEVT 050630Z 07004KT 030V100 9999 OVC016 16/13 Q1023
 
LEBB - Bilbao/Sondica, Spain
Distance from station: NNO 235km
Actualización: Tue, 05-Jul-2022 8:30am CEST
Muy nuboso
Muy nuboso
 Viento del calm
Viento: Calma
Temperatura: 19°C
Rocío: 17°C
Humedad: 88%
Barómetro: 1023 hPa
Clouds: Muy nuboso
Visibility: 10 km
Cloud details: Parcialmente nuboso 427 m
Muy nuboso 671 m
2022/07/05 06:30 LEBB 050630Z 00000KT 9999 SCT014 BKN022 19/17 Q1023 NOSIG
LESO - San Sebastian/Fu, Spain
Distance from station: N 231km
Actualización: Tue, 05-Jul-2022 8:30am CEST
Few Clouds
Few Clouds
 Viento del SO
Viento: SO 6 km/h
Temperatura: 20°C
Rocío: 18°C
Humedad: 88%
Barómetro: 1023 hPa
Clouds: Few Clouds
Visibility: 10 km
Cloud details: Few Clouds 579 m
2022/07/05 06:30 LESO 050630Z 22003KT 180V260 9999 FEW019 20/18 Q1023
 
LEVD - Valladolid(Mil/C, Spain
Distance from station: ONO 239km
Actualización: Tue, 05-Jul-2022 8:30am CEST
Few Clouds
Few Clouds
 Viento del ENE
Viento: ENE 24 km/h
Temperatura: 16°C
Rocío: 11°C
Humedad: 72%
Barómetro: 1021 hPa
Clouds: Few Clouds
Visibility: 10 km
Cloud details: Few Clouds 914 m
2022/07/05 06:30 LEVD 050630Z 06013KT 030V100 9999 FEW030 16/11 Q1021
LESA - Salamanca (civ/M, Spain
Distance from station: ONO 349km
Actualización: Tue, 05-Jul-2022 8:30am CEST
Despejado
Despejado
 Viento del NNE
Viento: NNE 6 km/h
Temperatura: 15°C
Rocío: 11°C
Humedad: 77%
Barómetro: 1021 hPa
Resumen: Despejado
Visibility: greater than 10 km
2022/07/05 06:30 LESA 050630Z 03003KT 360V080 CAVOK 15/11 Q1021
 
LEXJ - Santander/Paraya, Spain
Distance from station: NNO 247km
Actualización: Tue, 05-Jul-2022 8:30am CEST
Muy nuboso
Muy nuboso
 Viento del varies
Viento: varies 4 km/h
Temperatura: 17°C
Rocío: 15°C
Humedad: 88%
Barómetro: 1023 hPa
Clouds: Muy nuboso
Visibility: 10 km
Cloud details: Muy nuboso 610 m
Muy nuboso 1463 m
2022/07/05 06:30 LEXJ 050630Z VRB02KT 9999 BKN020 BKN048 17/15 Q1023
LEAS - Asturias/Aviles, Spain
Distance from station: NO 214km
Actualización: Tue, 05-Jul-2022 8:30am CEST
Lluvia débil, Mist, Cubierto
Lluvia débil, Mist, Cubierto
 Viento del E
Viento: E 11 km/h
Temperatura: 16°C
Rocío: 16°C
Humedad: 100%
Barómetro: 1023 hPa
Resumen: Lluvia débil, Mist
Clouds: Cubierto
Visibility: 1 km
Cloud details: Cubierto 30 m
2022/07/05 06:30 LEAS 050630Z 08006KT 040V110 1200 R29/P2000 R11/1900N -RA BR VV001 16/16 Q1023 TEMPO 3000 BR
 
LECO - La Coruna/Alvedr, Spain
Distance from station: ONO 222km
Actualización: Tue, 05-Jul-2022 8:30am CEST
Muy nuboso
Muy nuboso
 Viento del N
Viento: N 15 km/h
Temperatura: 17°C
Rocío: 14°C
Humedad: 83%
Barómetro: 1021 hPa
Clouds: Muy nuboso
Visibility: 10 km
Cloud details: Few Clouds 457 m
Muy nuboso 823 m
2022/07/05 06:30 LECO 050630Z 01008KT 320V050 9999 FEW015 BKN027 17/14 Q1021 NOSIG
LEVX - Vigo/Peinador, Spain
Distance from station: O 214km
Actualización: Tue, 05-Jul-2022 8:30am CEST
Despejado
Despejado
 Viento del varies
Viento: varies 6 km/h
Temperatura: 17°C
Rocío: 14°C
Humedad: 83%
Barómetro: 1018 hPa
Resumen: Despejado
Visibility: greater than 10 km
2022/07/05 06:30 LEVX 050630Z VRB03KT CAVOK 17/14 Q1018 NOSIG